Time;durP1;ratioP1;P1;durP2;ratioP2;P2;SDS_P1;SDS_P2;PMS_P1;PMS_P2;Temp;Humidity;BMP_temperature;BMP_pressure;BME280_temperature;BME280_humidity;BME280_pressure;Samples;Min_cycle;Max_cycle;Signal;HPM_P1;HPM_P2
2021/04/24 00:00:29;;;;;;;;;13.50;13.50;;;;;29.31;58.57;98565.66;4974503;28;8832;-73
2021/04/24 00:02:58;;;;;;;;;12.25;12.25;;;;;29.35;58.71;98576.50;4991115;28;8871;-73
2021/04/24 00:05:45;;;;;;;;;13.00;13.00;;;;;29.36;57.36;98578.81;4974337;28;8860;-72
2021/04/24 00:08:15;;;;;;;;;14.50;14.50;;;;;29.36;57.82;98595.13;4987203;28;8872;-72
2021/04/24 00:10:47;;;;;;;;;14.50;14.50;;;;;29.19;58.55;98574.25;4991452;28;8852;-72
2021/04/24 00:13:16;;;;;;;;;13.25;13.25;;;;;29.25;58.88;98588.19;4974099;28;8848;-73
2021/04/24 00:15:44;;;;;;;;;16.00;16.00;;;;;29.32;58.92;98604.47;4992830;28;8941;-73
2021/04/24 00:18:14;;;;;;;;;14.00;14.00;;;;;29.24;59.07;98592.84;4991204;28;8824;-74
2021/04/24 00:20:43;;;;;;;;;17.25;17.25;;;;;29.32;59.01;98610.66;4992135;28;8856;-74
2021/04/24 00:23:12;;;;;;;;;15.25;15.25;;;;;29.30;58.78;98595.94;4974380;28;8842;-73
2021/04/24 00:25:40;;;;;;;;;11.25;11.25;;;;;29.36;57.94;98607.94;4992262;28;8836;-73
2021/04/24 00:28:10;;;;;;;;;13.50;13.50;;;;;29.29;58.12;98599.81;4991894;28;8870;-74
2021/04/24 00:30:39;;;;;;;;;14.50;13.75;;;;;29.45;58.33;98619.19;4990289;28;8856;-73
2021/04/24 00:33:08;;;;;;;;;13.25;13.25;;;;;29.46;58.26;98626.16;4991666;28;8868;-74
2021/04/24 00:35:37;;;;;;;;;12.00;12.00;;;;;29.47;57.38;98628.47;4991638;28;8836;-72
2021/04/24 00:38:05;;;;;;;;;13.75;13.25;;;;;29.49;58.15;98631.59;4992630;28;8836;-72
2021/04/24 00:40:33;;;;;;;;;15.00;15.00;;;;;29.50;57.30;98629.63;4984513;28;8942;-68
2021/04/24 00:43:02;;;;;;;;;12.00;12.00;;;;;29.43;58.72;98619.56;4987980;28;8844;-72
2021/04/24 00:45:30;;;;;;;;;15.50;15.50;;;;;29.47;58.20;98612.19;4992599;28;8836;-73
2021/04/24 00:48:00;;;;;;;;;14.75;14.75;;;;;29.48;58.27;98619.16;4993085;28;8859;-73
2021/04/24 00:50:32;;;;;;;;;15.25;14.50;;;;;29.60;58.57;98634.25;4993594;28;8872;-74
2021/04/24 00:53:01;;;;;;;;;15.00;15.00;;;;;29.60;57.62;98636.97;4984402;28;8859;-73
2021/04/24 00:55:30;;;;;;;;;14.00;14.00;;;;;29.66;58.80;98640.03;4984904;28;8840;-73
2021/04/24 00:57:59;;;;;;;;;15.50;15.50;;;;;29.68;58.31;98635.00;4981945;28;8854;-73
2021/04/24 01:00:28;;;;;;;;;11.75;11.75;;;;;29.70;58.08;98641.56;4988926;28;9767;-75
2021/04/24 01:02:57;;;;;;;;;15.75;15.75;;;;;29.72;58.56;98654.78;4987112;28;8848;-76
2021/04/24 01:05:32;;;;;;;;;13.50;13.50;;;;;29.69;57.87;98645.47;4965516;28;8860;-72
2021/04/24 01:08:01;;;;;;;;;13.00;12.50;;;;;29.78;57.31;98653.19;4982377;28;8816;-71
2021/04/24 01:10:33;;;;;;;;;16.00;15.00;;;;;29.80;57.50;98653.56;4981100;28;8895;-74
2021/04/24 01:13:03;;;;;;;;;14.75;13.25;;;;;29.83;57.42;98653.53;4980852;28;8839;-72
2021/04/24 01:15:32;;;;;;;;;12.25;12.25;;;;;29.89;57.53;98664.00;4982252;28;8832;-74
2021/04/24 01:18:00;;;;;;;;;16.00;16.00;;;;;29.82;57.75;98657.44;4981637;28;8863;-74
2021/04/24 01:20:32;;;;;;;;;15.50;15.50;;;;;29.86;57.34;98665.56;4977443;28;8848;-73
2021/04/24 01:23:02;;;;;;;;;13.00;13.00;;;;;29.97;56.60;98679.09;4982651;28;8846;-73
2021/04/24 01:25:30;;;;;;;;;12.00;12.00;;;;;30.00;56.68;98686.44;4962972;28;8847;-73
2021/04/24 01:28:01;;;;;;;;;16.25;16.25;;;;;29.89;56.84;98664.78;4979656;28;8838;-74
2021/04/24 01:30:34;;;;;;;;;15.75;15.00;;;;;30.03;56.48;98688.41;4976869;28;8895;-73
2021/04/24 01:33:06;;;;;;;;;14.00;14.00;;;;;29.97;57.01;98671.69;4981734;28;8871;-71
2021/04/24 01:35:35;;;;;;;;;13.75;13.75;;;;;30.08;56.42;98683.31;4980019;28;8852;-72
2021/04/24 01:38:03;;;;;;;;;14.25;14.25;;;;;30.12;57.24;98683.28;4985519;28;8985;-74
2021/04/24 01:40:32;;;;;;;;;14.25;13.25;;;;;30.15;57.13;98677.06;4978982;28;8847;-72
2021/04/24 01:43:06;;;;;;;;;14.25;14.25;;;;;30.18;57.06;98678.97;4978785;28;8986;-73
2021/04/24 01:45:35;;;;;;;;;15.75;15.75;;;;;30.22;57.60;98677.00;4977091;28;8832;-73
2021/04/24 01:48:06;;;;;;;;;16.00;15.00;;;;;30.20;56.64;98671.19;4973966;28;8838;-74
2021/04/24 01:50:37;;;;;;;;;15.50;15.50;;;;;30.10;57.45;98653.00;4988252;28;8870;-74
2021/04/24 01:53:09;;;;;;;;;15.00;15.00;;;;;30.32;57.21;98681.59;4990755;28;8840;-75
2021/04/24 01:55:40;;;;;;;;;16.50;16.50;;;;;30.36;58.08;98687.78;4973454;28;8848;-74
2021/04/24 01:58:11;;;;;;;;;15.25;15.25;;;;;30.40;55.61;98693.22;4989258;28;8933;-71
2021/04/24 02:00:48;;;;;;;;;15.50;15.50;;;;;30.43;57.84;98695.91;4984014;28;8886;-72
2021/04/24 02:03:16;;;;;;;;;12.50;12.25;;;;;30.39;56.49;98687.00;4985519;28;9698;-73
2021/04/24 02:05:47;;;;;;;;;16.25;16.25;;;;;30.50;57.63;98690.41;4986865;28;9700;-72
2021/04/24 02:08:19;;;;;;;;;12.75;12.75;;;;;30.47;56.75;98685.00;4986212;28;9597;-74
2021/04/24 02:10:52;;;;;;;;;12.75;12.50;;;;;30.54;56.03;98686.88;4986500;28;8930;-75
2021/04/24 02:13:28;;;;;;;;;14.00;12.50;;;;;30.60;56.08;98694.25;4989432;28;8836;-74
2021/04/24 02:15:57;;;;;;;;;12.50;12.50;;;;;30.70;55.96;98696.09;4972429;28;8851;-72
2021/04/24 02:18:26;;;;;;;;;15.50;15.50;;;;;30.75;56.37;98694.91;4969636;28;8832;-73
2021/04/24 02:20:55;;;;;;;;;16.50;16.50;;;;;30.80;55.60;98695.25;4989075;28;8891;-72
2021/04/24 02:23:23;;;;;;;;;15.75;15.00;;;;;30.84;57.34;98697.94;4987397;28;8846;-73
2021/04/24 02:25:52;;;;;;;;;15.50;15.50;;;;;30.85;55.91;98694.03;4989455;28;8855;-74
2021/04/24 02:28:20;;;;;;;;;19.50;19.25;;;;;30.94;56.06;98694.34;4989757;28;8844;-74
2021/04/24 02:30:48;;;;;;;;;18.00;18.00;;;;;30.99;55.24;98690.41;4990407;28;8918;-74
2021/04/24 02:33:17;;;;;;;;;14.50;13.50;;;;;31.05;56.17;98696.94;4990569;28;9598;-73
2021/04/24 02:35:53;;;;;;;;;14.25;14.25;;;;;30.99;55.74;98679.50;4987974;28;8882;-74
2021/04/24 02:38:27;;;;;;;;;15.25;15.00;;;;;31.15;54.80;98698.81;4991412;28;8839;-74
2021/04/24 02:40:58;;;;;;;;;16.25;16.25;;;;;31.13;55.78;98682.09;4982932;28;8874;-73
2021/04/24 02:43:27;;;;;;;;;19.75;19.75;;;;;31.24;55.21;98684.69;4992697;28;8848;-73
2021/04/24 02:45:55;;;;;;;;;14.75;14.75;;;;;31.30;54.66;98688.50;4993394;28;8816;-74
2021/04/24 02:48:23;;;;;;;;;14.00;14.00;;;;;31.35;54.86;98685.34;4992398;28;8820;-74
2021/04/24 02:50:52;;;;;;;;;16.50;16.50;;;;;31.35;54.85;98677.94;4995029;28;8813;-73
2021/04/24 02:53:20;;;;;;;;;17.50;17.00;;;;;31.28;55.07;98653.50;4995140;28;8825;-73
2021/04/24 02:55:48;;;;;;;;;16.75;16.75;;;;;31.52;54.62;98683.59;4994913;28;8871;-74
2021/04/24 02:58:16;;;;;;;;;16.00;16.00;;;;;31.58;54.26;98679.22;4995066;28;8833;-73
2021/04/24 03:00:44;;;;;;;;;18.00;18.00;;;;;31.65;55.24;98681.88;4994871;28;8840;-73
2021/04/24 03:03:14;;;;;;;;;17.00;17.00;;;;;31.67;54.23;98666.66;4994958;28;9596;-74
2021/04/24 03:05:44;;;;;;;;;16.00;16.00;;;;;31.71;54.07;98666.63;4994764;28;8848;-74
2021/04/24 03:08:15;;;;;;;;;15.00;15.00;;;;;31.80;53.97;98666.91;4994513;28;8844;-73
2021/04/24 03:10:43;;;;;;;;;19.00;19.00;;;;;31.85;54.47;98673.84;4993135;28;8856;-74
2021/04/24 03:13:12;;;;;;;;;17.00;17.00;;;;;31.91;54.41;98680.38;4992374;28;8847;-76
2021/04/24 03:15:41;;;;;;;;;18.00;17.75;;;;;31.96;53.26;98675.25;4986158;28;8840;-74
2021/04/24 03:18:10;;;;;;;;;15.25;14.25;;;;;31.96;53.77;98677.19;4987781;28;8874;-74
2021/04/24 03:20:38;;;;;;;;;15.50;15.50;;;;;31.84;53.94;98653.22;4984998;28;8874;-74
2021/04/24 03:23:09;;;;;;;;;15.25;15.25;;;;;32.01;54.01;98668.56;4990327;28;8938;-75
2021/04/24 03:25:38;;;;;;;;;17.00;16.00;;;;;31.99;53.28;98662.72;4973639;28;8945;-74
2021/04/24 03:28:06;;;;;;;;;15.50;15.50;;;;;32.06;53.20;98663.41;4991124;28;8952;-73
2021/04/24 03:30:34;;;;;;;;;21.25;21.25;;;;;32.12;53.01;98660.97;4990802;28;8898;-74
2021/04/24 03:33:03;;;;;;;;;18.50;18.25;;;;;32.15;53.57;98659.38;4990319;28;8852;-74
2021/04/24 03:35:31;;;;;;;;;17.00;17.00;;;;;32.22;53.03;98662.78;4988176;28;8848;-74
2021/04/24 03:37:59;;;;;;;;;17.00;17.00;;;;;32.31;53.00;98665.00;4991256;28;8914;-74
2021/04/24 03:40:27;;;;;;;;;13.50;13.50;;;;;32.31;52.30;98651.38;4990758;28;8958;-73
2021/04/24 03:42:56;;;;;;;;;16.50;16.50;;;;;32.45;52.58;98661.28;4990987;28;8847;-73
2021/04/24 03:45:24;;;;;;;;;17.25;17.00;;;;;32.53;52.78;98654.50;4989704;28;9573;-73
2021/04/24 03:47:54;;;;;;;;;15.75;15.75;;;;;32.44;52.68;98627.75;4987343;28;8844;-73
2021/04/24 03:50:25;;;;;;;;;17.00;17.00;;;;;32.65;52.81;98645.69;4984394;28;8833;-73
2021/04/24 03:52:54;;;;;;;;;17.00;17.00;;;;;32.73;52.36;98642.41;4982325;28;8828;-73
2021/04/24 03:55:23;;;;;;;;;17.00;17.00;;;;;32.75;52.25;98647.47;4985488;28;8843;-73
2021/04/24 03:57:55;;;;;;;;;15.25;15.25;;;;;32.75;52.21;98640.03;4991988;28;8836;-73
2021/04/24 04:00:26;;;;;;;;;15.25;15.25;;;;;32.78;52.20;98641.19;4984742;28;8819;-74
2021/04/24 04:02:59;;;;;;;;;13.00;13.00;;;;;32.84;52.33;98627.81;4975611;28;8853;-73
2021/04/24 04:05:31;;;;;;;;;19.50;18.50;;;;;32.88;52.12;98632.03;4981974;28;8846;-73
2021/04/24 04:08:00;;;;;;;;;16.50;16.50;;;;;32.89;51.12;98625.38;4984422;28;8958;-73
2021/04/24 04:10:28;;;;;;;;;19.00;19.00;;;;;32.76;51.78;98605.34;4965818;28;8854;-72
2021/04/24 04:12:57;;;;;;;;;18.25;18.25;;;;;32.90;51.57;98624.19;4992857;28;8866;-74
2021/04/24 04:15:27;;;;;;;;;17.50;17.50;;;;;32.75;51.50;98592.84;4982294;28;8936;-74
2021/04/24 04:18:07;;;;;;;;;14.25;14.25;;;;;33.01;50.89;98624.00;4983002;28;8867;-74
2021/04/24 04:20:39;;;;;;;;;18.75;18.75;;;;;33.12;50.92;98615.59;4982935;28;8854;-74
2021/04/24 04:23:08;;;;;;;;;19.50;19.50;;;;;33.22;50.95;98611.88;4981075;28;8838;-74
2021/04/24 04:25:37;;;;;;;;;20.50;20.50;;;;;33.30;50.53;98594.91;4981181;28;8970;-73
2021/04/24 04:28:06;;;;;;;;;21.75;21.00;;;;;33.43;50.48;98599.75;4990619;28;8831;-73
2021/04/24 04:30:37;;;;;;;;;17.00;15.50;;;;;33.50;50.36;98599.59;4991836;28;8848;-73
2021/04/24 04:33:06;;;;;;;;;19.00;17.75;;;;;33.57;51.09;98592.00;4987815;28;8874;-73
2021/04/24 04:52:03;;;;;;;;;16.75;16.75;;;;;33.80;50.17;98552.03;4970615;28;9586;-73
2021/04/24 04:54:31;;;;;;;;;17.00;17.00;;;;;33.88;48.53;98559.63;4991602;28;8988;-73
2021/04/24 04:57:00;;;;;;;;;17.75;17.50;;;;;33.93;49.13;98548.16;4991233;28;8848;-73
2021/04/24 04:59:28;;;;;;;;;19.00;18.50;;;;;34.00;48.53;98548.00;4988718;28;8886;-74
2021/04/24 05:01:57;;;;;;;;;16.00;16.00;;;;;34.11;48.20;98549.69;4989853;28;8852;-72
2021/04/24 05:04:34;;;;;;;;;14.75;14.75;;;;;34.21;49.25;98543.97;4990643;28;8858;-73
2021/04/24 05:07:05;;;;;;;;;18.00;18.00;;;;;34.32;47.68;98541.75;4987337;28;8866;-72
2021/04/24 05:09:38;;;;;;;;;17.50;17.50;;;;;34.39;47.82;98529.84;4987000;28;8950;-73
2021/04/24 05:12:07;;;;;;;;;10.00;10.00;;;;;34.53;49.44;98528.69;4982279;28;8934;-72
2021/04/24 05:14:37;;;;;;;;;11.25;11.25;;;;;34.58;48.97;98528.16;4981289;28;8876;-70
2021/04/24 05:17:05;;;;;;;;;17.25;17.25;;;;;34.60;47.30;98533.97;4971628;28;8843;-72
2021/04/24 05:19:35;;;;;;;;;16.25;16.25;;;;;34.64;47.55;98524.44;4989301;28;8844;-72
2021/04/24 05:22:04;;;;;;;;;20.80;19.80;;;;;34.69;46.72;98523.16;4971092;28;8978;-72
2021/04/24 05:24:32;;;;;;;;;15.50;15.50;;;;;34.77;48.52;98513.53;4990438;28;8843;-72
2021/04/24 05:27:01;;;;;;;;;20.00;19.25;;;;;34.88;46.70;98514.03;4986802;28;8975;-72
2021/04/24 05:29:29;;;;;;;;;16.00;16.00;;;;;34.88;47.08;98505.03;4990277;28;8844;-71
2021/04/24 05:31:57;;;;;;;;;18.50;18.50;;;;;34.99;48.56;98502.75;4990694;28;9597;-71
2021/04/24 05:34:25;;;;;;;;;20.00;20.00;;;;;35.01;46.09;98496.84;4988966;28;8864;-72
2021/04/24 05:36:54;;;;;;;;;18.20;18.20;;;;;34.99;46.75;98484.34;4988082;28;8964;-72
2021/04/24 05:39:23;;;;;;;;;16.50;16.50;;;;;35.10;46.84;98483.25;4971428;28;9649;-72
2021/04/24 05:41:51;;;;;;;;;19.80;19.80;;;;;35.24;45.81;98475.31;4987955;28;8862;-71
2021/04/24 05:44:19;;;;;;;;;23.60;21.40;;;;;35.39;44.92;98474.91;4988594;28;8914;-72
2021/04/24 05:46:48;;;;;;;;;26.00;24.00;;;;;35.52;43.82;98470.94;4990699;28;8832;-72
2021/04/24 05:49:17;;;;;;;;;17.00;17.00;;;;;35.64;44.57;98456.44;4964646;28;9588;-72
2021/04/24 05:51:45;;;;;;;;;19.50;19.50;;;;;35.82;43.72;98449.63;4972465;28;10090;-72
2021/04/24 05:54:14;;;;;;;;;17.00;17.00;;;;;35.96;43.51;98446.41;4988838;28;8844;-72
2021/04/24 05:56:42;;;;;;;;;20.60;20.60;;;;;36.07;44.21;98438.56;4971916;28;8856;-73
2021/04/24 05:59:11;;;;;;;;;19.00;18.60;;;;;36.17;44.37;98423.69;4988713;28;9761;-73
2021/04/24 06:01:39;;;;;;;;;19.40;19.40;;;;;36.26;43.72;98422.97;4972338;28;8870;-72
2021/04/24 06:04:08;;;;;;;;;17.60;17.60;;;;;36.32;44.04;98421.22;4989711;28;8840;-73
2021/04/24 06:06:37;;;;;;;;;15.60;15.60;;;;;36.42;43.58;98416.53;4988883;28;8951;-73
2021/04/24 06:09:05;;;;;;;;;17.20;16.80;;;;;36.47;43.92;98402.22;4988651;28;8870;-73
2021/04/24 06:11:34;;;;;;;;;19.20;19.20;;;;;36.54;44.51;98397.22;4990810;28;8923;-72
2021/04/24 06:14:03;;;;;;;;;18.60;18.60;;;;;36.54;43.76;98402.72;4987802;28;8840;-71
2021/04/24 06:16:32;;;;;;;;;21.50;21.25;;;;;36.57;44.63;98392.78;4989295;28;8874;-75
2021/04/24 06:19:00;;;;;;;;;15.40;15.40;;;;;36.64;44.79;98398.03;4970592;28;8836;-75
2021/04/24 06:21:28;;;;;;;;;16.80;16.80;;;;;36.62;44.12;98386.72;4990188;28;8886;-74
2021/04/24 06:23:56;;;;;;;;;18.20;18.20;;;;;36.64;43.67;98378.03;4984499;28;8836;-72
2021/04/24 06:26:24;;;;;;;;;18.80;17.80;;;;;36.66;46.19;98372.84;4961091;28;8956;-74
2021/04/24 06:28:53;;;;;;;;;20.20;16.00;;;;;36.60;43.33;98367.16;4955290;28;8838;-74
2021/04/24 06:31:21;;;;;;;;;16.80;16.80;;;;;36.58;45.28;98359.38;4938454;28;8850;-74
2021/04/24 06:33:49;;;;;;;;;14.40;14.40;;;;;36.57;43.93;98357.06;4972300;28;8905;-73
2021/04/24 06:36:18;;;;;;;;;14.00;14.00;;;;;36.49;45.47;98347.56;4972167;28;8957;-75
2021/04/24 06:38:46;;;;;;;;;17.00;17.00;;;;;36.41;44.55;98347.09;4972017;28;8970;-75
2021/04/24 06:41:14;;;;;;;;;17.40;17.40;;;;;36.30;43.70;98337.75;4955592;28;8964;-73
2021/04/24 06:43:42;;;;;;;;;16.60;16.60;;;;;36.12;45.79;98328.16;4972700;28;8964;-73
2021/04/24 06:46:11;;;;;;;;;20.20;19.20;;;;;36.04;46.61;98329.63;4972624;28;8850;-72
2021/04/24 06:48:39;;;;;;;;;17.40;17.40;;;;;35.86;45.83;98313.78;4972655;28;8862;-73
2021/04/24 06:51:07;;;;;;;;;19.40;19.00;;;;;35.71;46.40;98309.22;4964747;28;8862;-75
2021/04/24 06:53:36;;;;;;;;;17.20;17.20;;;;;35.59;46.28;98308.06;4953350;29;8863;-73
2021/04/24 06:56:04;;;;;;;;;18.00;18.00;;;;;35.43;46.13;98300.78;4953316;29;8871;-74
2021/04/24 06:58:33;;;;;;;;;23.25;21.25;;;;;35.28;46.71;98286.75;4953175;29;8862;-73
2021/04/24 07:01:01;;;;;;;;;21.80;21.80;;;;;35.10;46.69;98280.38;4953507;29;8961;-75
2021/04/24 07:03:29;;;;;;;;;17.20;17.20;;;;;35.08;46.75;98288.28;4953511;29;8933;-75
2021/04/24 07:05:57;;;;;;;;;18.75;18.75;;;;;34.99;46.96;98277.97;4953150;29;8855;-75
2021/04/24 07:08:26;;;;;;;;;17.50;17.00;;;;;34.99;47.10;98284.22;4953106;29;8863;-73
2021/04/24 07:10:54;;;;;;;;;20.60;20.60;;;;;35.00;46.42;98279.53;4952736;29;8978;-73
2021/04/24 07:13:22;;;;;;;;;17.00;17.00;;;;;34.97;46.29;98267.47;4951358;29;8882;-74
2021/04/24 07:15:51;;;;;;;;;21.75;21.75;;;;;35.02;46.22;98259.88;4935122;29;8862;-74
2021/04/24 07:18:19;;;;;;;;;30.75;25.50;;;;;35.10;45.78;98250.97;4952198;29;8862;-74
2021/04/24 07:20:50;;;;;;;;;24.50;24.50;;;;;35.29;46.94;98260.09;4951648;29;8863;-72
2021/04/24 07:23:18;;;;;;;;;21.00;21.00;;;;;35.43;46.32;98250.66;4950930;29;8860;-71
2021/04/24 07:25:46;;;;;;;;;20.40;20.40;;;;;35.58;46.35;98248.94;4951893;29;8874;-73
2021/04/24 07:28:16;;;;;;;;;19.80;19.80;;;;;35.71;45.30;98238.66;4956837;28;8950;-73
2021/04/24 07:30:44;;;;;;;;;21.40;21.20;;;;;35.82;46.03;98236.31;4974808;28;8959;-73
2021/04/24 07:33:12;;;;;;;;;18.40;18.40;;;;;35.97;45.47;98227.53;4972800;28;8891;-74
2021/04/24 07:35:41;;;;;;;;;19.20;19.20;;;;;36.19;44.38;98225.50;4974041;28;8934;-74
2021/04/24 07:38:10;;;;;;;;;18.00;18.00;;;;;36.32;43.64;98230.94;4975526;28;8860;-78
2021/04/24 07:40:38;;;;;;;;;21.20;21.20;;;;;36.47;42.76;98231.88;4974121;28;8874;-76
2021/04/24 07:43:06;;;;;;;;;16.80;16.80;;;;;36.60;43.25;98229.78;4954109;28;8853;-76
2021/04/24 07:45:35;;;;;;;;;18.40;18.40;;;;;36.69;43.14;98223.53;4976140;28;8845;-75
2021/04/24 07:48:04;;;;;;;;;17.40;17.40;;;;;36.82;42.77;98230.47;4972559;28;8864;-75
2021/04/24 07:50:33;;;;;;;;;18.00;18.00;;;;;36.90;43.15;98226.19;4958116;28;8861;-75
2021/04/24 07:53:02;;;;;;;;;17.80;17.80;;;;;37.03;44.57;98222.53;4972151;28;8864;-75
2021/04/24 07:55:31;;;;;;;;;18.00;18.00;;;;;37.01;43.30;98214.00;4972721;28;8891;-74
2021/04/24 07:57:59;;;;;;;;;14.40;14.40;;;;;37.12;42.32;98225.28;4972917;28;8860;-75
2021/04/24 08:00:27;;;;;;;;;17.60;17.60;;;;;37.12;42.66;98217.81;4974122;28;8936;-74
2021/04/24 08:02:56;;;;;;;;;14.40;14.40;;;;;37.28;42.52;98218.75;4974331;28;8862;-74
2021/04/24 08:05:24;;;;;;;;;19.60;19.60;;;;;37.34;42.84;98214.94;4973351;28;8861;-73
2021/04/24 08:08:00;;;;;;;;;18.20;17.20;;;;;37.43;42.93;98203.91;4970878;28;8890;-73
2021/04/24 08:10:29;;;;;;;;;16.00;16.00;;;;;37.51;42.53;98207.13;4973022;28;8861;-72
2021/04/24 08:12:59;;;;;;;;;16.20;16.20;;;;;37.58;41.62;98208.78;4972785;28;8846;-74
2021/04/24 08:15:27;;;;;;;;;14.20;14.20;;;;;37.65;40.89;98211.97;4973623;28;8850;-74
2021/04/24 08:17:55;;;;;;;;;13.20;13.20;;;;;37.66;42.52;98202.50;4973177;28;8857;-74
2021/04/24 08:20:25;;;;;;;;;16.80;16.80;;;;;37.74;42.52;98219.47;4973420;28;8869;-75
2021/04/24 08:22:53;;;;;;;;;16.00;16.00;;;;;37.70;43.48;98221.63;4972444;28;9603;-73
2021/04/24 08:25:22;;;;;;;;;13.80;13.80;;;;;37.56;42.96;98201.00;4973511;28;8869;-73
2021/04/24 08:27:51;;;;;;;;;13.80;12.60;;;;;37.53;42.92;98201.91;4972386;28;8872;-74
2021/04/24 08:30:20;;;;;;;;;18.60;18.60;;;;;37.43;44.38;98203.91;4972977;28;9725;-73
2021/04/24 08:32:50;;;;;;;;;17.00;15.40;;;;;37.26;43.50;98199.19;4973263;28;8865;-72
2021/04/24 08:35:18;;;;;;;;;11.20;11.20;;;;;37.10;44.48;98200.25;4973493;28;8904;-72
2021/04/24 08:37:46;;;;;;;;;15.00;15.00;;;;;37.00;44.15;98199.47;4972474;28;8857;-75
2021/04/24 08:40:16;;;;;;;;;14.80;14.80;;;;;36.98;43.61;98207.41;4971250;28;8853;-73
2021/04/24 08:42:48;;;;;;;;;13.80;13.80;;;;;36.91;43.12;98200.22;4972407;28;8892;-73
2021/04/24 08:45:20;;;;;;;;;11.00;11.00;;;;;36.96;43.55;98198.09;4972585;28;8927;-73
2021/04/24 08:47:51;;;;;;;;;12.80;12.80;;;;;37.02;42.47;98201.78;4971981;28;8861;-76
2021/04/24 08:50:20;;;;;;;;;13.20;13.20;;;;;37.01;42.77;98200.25;4972708;28;8857;-74
2021/04/24 08:52:49;;;;;;;;;16.00;16.00;;;;;37.00;43.11;98196.72;4973556;28;8848;-73
2021/04/24 08:55:27;;;;;;;;;16.60;16.60;;;;;37.07;43.81;98203.91;4955896;28;8849;-74
2021/04/24 08:57:55;;;;;;;;;15.00;15.00;;;;;37.04;44.39;98205.59;4973048;28;8944;-74
2021/04/24 09:00:28;;;;;;;;;13.80;13.80;;;;;36.96;42.90;98198.09;4972867;28;8853;-73
2021/04/24 09:02:57;;;;;;;;;14.80;14.80;;;;;36.90;43.27;98214.44;4972248;28;9007;-74
2021/04/24 09:05:27;;;;;;;;;14.20;14.20;;;;;36.85;43.21;98210.31;4972258;28;8932;-74
2021/04/24 09:08:04;;;;;;;;;15.00;15.00;;;;;36.77;42.74;98202.81;4970143;28;8857;-74
2021/04/24 09:10:44;;;;;;;;;13.40;13.40;;;;;36.72;43.44;98203.38;4969616;28;8908;-74
2021/04/24 09:13:19;;;;;;;;;10.20;10.20;;;;;36.67;43.00;98196.50;4970185;28;8868;-74
2021/04/24 09:15:48;;;;;;;;;5.20;5.20;;;;;36.69;43.82;98196.06;4972316;28;8963;-75
2021/04/24 09:18:18;;;;;;;;;12.00;12.00;;;;;36.71;42.43;98188.13;4971637;28;8849;-74
2021/04/24 09:20:52;;;;;;;;;13.00;13.00;;;;;36.71;42.73;98193.63;4971436;28;8837;-72
2021/04/24 09:23:22;;;;;;;;;13.60;13.60;;;;;36.70;42.59;98192.84;4971355;28;8841;-73
2021/04/24 09:26:03;;;;;;;;;13.40;13.40;;;;;36.69;43.34;98190.56;4972183;28;8840;-72
2021/04/24 09:28:38;;;;;;;;;12.40;12.40;;;;;36.65;43.09;98192.69;4971365;28;8840;-72
2021/04/24 09:31:26;;;;;;;;;14.60;14.60;;;;;36.65;43.77;98192.69;4969421;28;8844;-72
2021/04/24 09:34:02;;;;;;;;;16.20;14.00;;;;;36.60;42.89;98194.06;4971393;28;8918;-72
2021/04/24 09:36:38;;;;;;;;;13.00;13.00;;;;;36.50;42.59;98190.53;4969513;28;8856;-73
2021/04/24 09:39:10;;;;;;;;;13.20;13.20;;;;;36.45;43.35;98196.63;4971545;28;8860;-72
2021/04/24 09:41:41;;;;;;;;;12.20;12.20;;;;;36.36;44.30;98193.09;4969502;28;8849;-72
2021/04/24 09:44:13;;;;;;;;;16.60;15.00;;;;;36.29;44.56;98194.16;4968782;28;8840;-75
2021/04/24 09:46:50;;;;;;;;;14.20;13.40;;;;;36.25;43.33;98191.50;4954468;28;8935;-73
2021/04/24 09:49:29;;;;;;;;;13.20;13.20;;;;;36.20;43.08;98196.84;4969963;28;8848;-73
2021/04/24 09:52:01;;;;;;;;;14.60;14.60;;;;;36.13;43.24;98194.38;4965975;28;8865;-72
2021/04/24 09:54:36;;;;;;;;;15.40;15.40;;;;;36.08;44.29;98195.72;4971535;28;8833;-73
2021/04/24 09:57:22;;;;;;;;;13.40;13.40;;;;;35.97;43.15;98191.84;4969477;28;8964;-75
2021/04/24 10:00:00;;;;;;;;;15.40;15.40;;;;;35.94;43.00;98204.50;4969871;28;8848;-76
2021/04/24 10:02:35;;;;;;;;;18.60;18.60;;;;;35.93;44.23;98220.22;4970840;28;8863;-75
2021/04/24 10:05:10;;;;;;;;;8.60;8.40;;;;;35.88;43.80;98215.31;4974929;28;8857;-76
2021/04/24 10:07:41;;;;;;;;;16.20;16.20;;;;;35.83;43.67;98224.13;4976957;28;8883;-77
2021/04/24 10:10:15;;;;;;;;;17.40;17.40;;;;;35.81;43.54;98218.31;4973624;28;8927;-77
2021/04/24 10:13:04;;;;;;;;;16.40;16.40;;;;;35.79;43.78;98231.72;4973119;28;8947;-77
2021/04/24 10:15:47;;;;;;;;;17.60;17.60;;;;;35.78;44.07;98229.41;4973122;28;8920;-75
2021/04/24 10:18:17;;;;;;;;;14.40;14.40;;;;;35.72;43.61;98231.19;4973143;28;8860;-75
2021/04/24 10:20:47;;;;;;;;;19.20;19.20;;;;;35.73;44.29;98233.47;4972952;28;8937;-76
2021/04/24 10:23:16;;;;;;;;;16.00;16.00;;;;;35.67;44.07;98235.28;4972494;28;8947;-76
2021/04/24 10:25:45;;;;;;;;;17.80;17.20;;;;;35.62;44.08;98239.34;4971816;28;8857;-75
2021/04/24 10:28:16;;;;;;;;;19.80;19.80;;;;;35.61;44.73;98245.28;4972797;28;8935;-76
2021/04/24 10:30:55;;;;;;;;;18.60;18.60;;;;;35.57;44.75;98253.66;4971278;28;8848;-76
2021/04/24 10:33:23;;;;;;;;;17.60;17.60;;;;;35.61;44.47;98259.78;4970091;28;8861;-77
2021/04/24 10:35:52;;;;;;;;;13.80;13.80;;;;;35.60;44.73;98266.47;4972315;28;8936;-77
2021/04/24 10:38:20;;;;;;;;;17.60;17.60;;;;;35.56;45.04;98265.84;4969984;28;9621;-76
2021/04/24 10:40:51;;;;;;;;;15.80;15.20;;;;;35.55;44.82;98272.53;4954377;28;8871;-76
2021/04/24 10:43:23;;;;;;;;;17.40;17.40;;;;;35.58;44.99;98279.88;4972044;28;8919;-77
2021/04/24 10:45:52;;;;;;;;;18.60;18.60;;;;;35.55;45.00;98283.50;4972331;28;8833;-76
2021/04/24 10:48:25;;;;;;;;;17.00;17.00;;;;;35.54;44.95;98289.44;4972559;28;8880;-76
2021/04/24 10:50:54;;;;;;;;;16.00;16.00;;;;;35.46;45.14;98288.16;4972474;28;8860;-76
2021/04/24 10:53:31;;;;;;;;;17.00;17.00;;;;;35.41;45.69;98284.00;4971472;28;9630;-75
2021/04/24 10:56:01;;;;;;;;;17.60;17.60;;;;;35.44;44.68;98302.31;4972763;28;8854;-75
2021/04/24 10:58:32;;;;;;;;;18.40;18.40;;;;;35.41;45.34;98294.97;4972214;28;8869;-76
2021/04/24 11:01:06;;;;;;;;;17.20;16.00;;;;;35.38;45.74;98289.63;4971921;28;8838;-76
2021/04/24 11:03:41;;;;;;;;;15.40;15.40;;;;;35.33;45.61;98296.44;4972655;28;8896;-76
2021/04/24 11:06:15;;;;;;;;;18.60;18.60;;;;;35.26;45.13;98300.16;4972732;28;8850;-76
2021/04/24 11:08:44;;;;;;;;;22.80;22.80;;;;;35.21;45.91;98302.69;4975303;28;9602;-76
2021/04/24 11:11:16;;;;;;;;;20.40;20.40;;;;;35.21;45.84;98319.13;4975004;28;8865;-76
2021/04/24 11:13:55;;;;;;;;;14.20;14.20;;;;;35.14;45.38;98313.88;4975339;28;8861;-78
2021/04/24 11:16:31;;;;;;;;;18.80;18.80;;;;;35.09;46.06;98325.44;4970026;28;8894;-77
2021/04/24 11:19:00;;;;;;;;;16.40;16.40;;;;;35.02;45.76;98328.41;4972799;28;8837;-77
2021/04/24 11:21:30;;;;;;;;;21.25;20.50;;;;;34.96;45.75;98330.94;4975028;28;8842;-76
2021/04/24 11:24:01;;;;;;;;;19.60;19.60;;;;;34.88;46.09;98324.91;4974809;28;8849;-77
2021/04/24 11:26:32;;;;;;;;;22.20;21.00;;;;;34.83;46.33;98316.47;4974960;28;8895;-74
2021/04/24 11:29:02;;;;;;;;;19.80;19.80;;;;;34.79;45.57;98318.53;4972700;28;8901;-76
2021/04/24 11:31:54;;;;;;;;;17.00;17.00;;;;;34.74;45.90;98316.34;4975006;28;8933;-74
2021/04/24 11:34:48;;;;;;;;;23.00;21.80;;;;;34.68;46.04;98319.63;4972993;28;9010;-77
2021/04/24 11:40:04;;;;;;;;;19.80;18.40;;;;;34.59;46.15;98335.19;4974692;28;8844;-76
2021/04/24 11:42:36;;;;;;;;;17.75;17.50;;;;;34.54;45.86;98346.69;4973669;28;8869;-76
2021/04/24 11:45:15;;;;;;;;;20.80;20.80;;;;;34.51;45.98;98342.09;4974813;28;8841;-76
2021/04/24 11:47:50;;;;;;;;;20.50;20.00;;;;;34.47;46.24;98344.94;4974835;28;8901;-76
2021/04/24 11:50:19;;;;;;;;;22.75;22.75;;;;;34.44;46.22;98345.81;4976291;28;8936;-78
2021/04/24 11:52:56;;;;;;;;;23.25;22.00;;;;;34.40;46.18;98358.06;4992109;28;8836;-79
2021/04/24 11:55:25;;;;;;;;;20.00;20.00;;;;;34.37;46.07;98362.44;4994120;28;8894;-79
2021/04/24 11:58:11;;;;;;;;;24.25;24.25;;;;;34.32;46.14;98366.50;4994975;28;8848;-79